Aérodrome :
LOGIN :

S'inscrire | Disclaimer

   EN    FR    IT 

 










Légende :    VFR   VFR Marginal   IFR   IFR Intensif   IFR Très Intensif
Visi : 
Plafond : 
>= 8 km
>= 3000ft
5 à 8 km
1000 à 3000 ft
1500m à 5 km
500 à 1000 ft
800 à 1500m
200 à 500 ft
< 800m
< 200 ft
Symboles :   Orages  Brouillard  Fortes neiges  Fortes précipitations  Vent > 20 kt
SIGMETs :   Divers  Orages  Givrage  Turbulence  Onde Orograph.  Cendres Volcan.






- Altitude de l'aérodrome : 330 ft
- Code IATA : LVA


LFOV - Laval-Entrammes

DERNIER METAR :
  • 231800Z AUTO 22009KT 190V250 5000 -DZ BR OVC005 12/11 Q1027

METARs EXPIRÉS :
  • 231730Z AUTO 22008KT 3600 -DZ BR BKN005 OVC009 12/11 Q1027
  • 231700Z AUTO 23007KT 190V270 4700 BR OVC006 12/11 Q1027
  • 231630Z AUTO 22009KT 190V260 6000 OVC006 12/11 Q1027
  • 231600Z AUTO 23010KT 200V260 5000 BR BKN006 OVC013 12/11 Q1027
  • 231530Z AUTO 23011KT 200V260 3900 -DZ BR BKN007 OVC013 12/11 Q1027

TAF N/A



MET'MAP, la Météo Aéronautique d'un coup d'oeil ! - Copyright ORBIFLY Décembre 2007 - Disclaimer

ORBIFLY MET'MAP TEAM :

Programmation & Développement : Alexandra Zaïnal
Sur une idée originale de : Baudouin d'Aumeries
Assistance à la programmation : Marc-Olivier Méhu
Soutien technique & logistique : Manuel Goepfert

Contact : metmap@orbifly.com




SOURCES & CREDITS :

   NOAA